createdAt,value
2018-02-16T00:00:14.025Z,101307.10
2018-02-16T00:02:49.275Z,101303.63
2018-02-16T00:05:24.451Z,101317.05
2018-02-16T00:07:59.107Z,101313.13
2018-02-16T00:10:34.134Z,101313.50
2018-02-16T00:13:10.459Z,101317.31
2018-02-16T00:15:45.430Z,101317.34
2018-02-16T00:18:20.295Z,101326.81
2018-02-16T00:20:55.251Z,101325.67
2018-02-16T00:23:30.431Z,101322.30
2018-02-16T00:26:05.079Z,101321.37
2018-02-16T00:28:40.458Z,101330.59
2018-02-16T00:31:16.058Z,101328.95
2018-02-16T00:33:51.183Z,101330.77
2018-02-16T00:36:26.447Z,101342.08
2018-02-16T00:39:01.595Z,101338.77
2018-02-16T00:41:36.427Z,101350.05
2018-02-16T00:44:11.529Z,101350.94
2018-02-16T00:46:46.484Z,101353.56
2018-02-16T00:49:21.603Z,101353.88
2018-02-16T00:51:56.171Z,101362.03
2018-02-16T00:54:31.214Z,101361.63
2018-02-16T00:57:05.556Z,101365.99
2018-02-16T00:59:40.991Z,101366.53
2018-02-16T01:02:16.031Z,101362.06
2018-02-16T01:04:51.063Z,101366.02
2018-02-16T01:07:25.723Z,101359.95
2018-02-16T01:10:01.338Z,101365.72
2018-02-16T01:12:36.347Z,101375.65
2018-02-16T01:15:11.241Z,101371.31
2018-02-16T01:17:46.247Z,101372.17
2018-02-16T01:20:21.378Z,101379.30
2018-02-16T01:22:56.175Z,101387.80
2018-02-16T01:25:31.215Z,101387.04
2018-02-16T01:28:06.265Z,101386.59
2018-02-16T01:30:41.337Z,101390.45
2018-02-16T01:33:15.927Z,101391.84
2018-02-16T01:35:51.306Z,101396.31
2018-02-16T01:38:26.298Z,101399.17
2018-02-16T01:41:01.399Z,101408.41
2018-02-16T01:43:36.427Z,101403.47
2018-02-16T01:46:11.587Z,101408.41
2018-02-16T01:48:46.699Z,101394.97
2018-02-16T01:51:21.663Z,101394.84
2018-02-16T01:53:56.391Z,101405.02
2018-02-16T01:56:31.258Z,101399.15
2018-02-16T01:59:05.713Z,101409.03
2018-02-16T02:01:40.658Z,101400.87
2018-02-16T02:04:15.823Z,101411.12
2018-02-16T02:06:50.481Z,101401.00
2018-02-16T02:09:25.543Z,101411.22
2018-02-16T02:12:00.414Z,101408.21
2018-02-16T02:14:35.323Z,101410.50
2018-02-16T02:17:10.721Z,101405.75
2018-02-16T02:19:45.127Z,101410.20
2018-02-16T02:22:20.459Z,101410.05
2018-02-16T02:24:54.844Z,101412.52
2018-02-16T02:27:30.074Z,101409.64
2018-02-16T02:30:05.303Z,101410.75
2018-02-16T02:32:40.307Z,101409.64
2018-02-16T02:35:15.285Z,101407.33
2018-02-16T02:37:50.323Z,101415.14
2018-02-16T02:40:25.387Z,101409.45
2018-02-16T02:43:00.656Z,101418.47
2018-02-16T02:45:35.634Z,101418.56
2018-02-16T02:48:10.837Z,101415.97
2018-02-16T02:50:45.595Z,101427.52
2018-02-16T02:53:20.813Z,101416.86
2018-02-16T02:55:55.429Z,101425.97
2018-02-16T02:58:30.475Z,101425.12
2018-02-16T03:01:05.755Z,101428.62
2018-02-16T03:03:40.632Z,101438.76
2018-02-16T03:06:15.723Z,101438.82
2018-02-16T03:08:50.815Z,101437.59
2018-02-16T03:11:25.730Z,101451.26
2018-02-16T03:14:00.796Z,101447.14
2018-02-16T03:16:35.823Z,101445.28
2018-02-16T03:19:10.899Z,101453.45
2018-02-16T03:21:45.651Z,101461.45
2018-02-16T03:24:20.702Z,101472.56
2018-02-16T03:26:55.551Z,101471.55
2018-02-16T03:29:30.926Z,101462.47
2018-02-16T03:32:05.546Z,101476.65
2018-02-16T03:34:40.607Z,101479.31
2018-02-16T03:37:15.516Z,101476.75
2018-02-16T03:39:50.439Z,101483.68
2018-02-16T03:42:25.632Z,101491.15
2018-02-16T03:45:00.611Z,101488.37
2018-02-16T03:47:35.607Z,101497.03
2018-02-16T03:50:10.926Z,101504.06
2018-02-16T03:52:46.058Z,101509.03
2018-02-16T03:55:21.059Z,101511.87
2018-02-16T03:57:56.431Z,101515.89
2018-02-16T04:00:31.463Z,101520.73
2018-02-16T04:03:06.546Z,101523.02
2018-02-16T04:05:41.878Z,101520.61
2018-02-16T04:08:16.819Z,101524.67
2018-02-16T04:10:51.975Z,101530.19
2018-02-16T04:13:27.368Z,101531.44
2018-02-16T04:16:02.499Z,101537.75
2018-02-16T04:18:37.619Z,101533.89
2018-02-16T04:21:12.659Z,101534.36
2018-02-16T04:23:47.615Z,101542.39
2018-02-16T04:26:22.786Z,101541.83
2018-02-16T04:28:57.159Z,101545.73
2018-02-16T04:31:31.999Z,101546.23
2018-02-16T04:34:07.149Z,101541.98
2018-02-16T04:36:41.679Z,101538.82
2018-02-16T04:39:16.778Z,101544.13
2018-02-16T04:41:51.702Z,101547.62
2018-02-16T04:44:27.183Z,101548.68
2018-02-16T04:47:01.795Z,101552.73
2018-02-16T04:49:36.739Z,101547.80
2018-02-16T04:52:11.880Z,101553.47
2018-02-16T04:54:46.726Z,101552.78
2018-02-16T04:57:21.670Z,101554.62
2018-02-16T04:59:56.719Z,101559.91
2018-02-16T05:02:31.715Z,101561.50
2018-02-16T05:05:06.606Z,101565.91
2018-02-16T05:07:41.607Z,101565.08
2018-02-16T05:10:16.902Z,101561.41
2018-02-16T05:12:51.692Z,101569.23
2018-02-16T05:15:26.948Z,101567.12
2018-02-16T05:18:01.702Z,101569.33
2018-02-16T05:20:36.860Z,101573.05
2018-02-16T05:23:12.087Z,101580.96
2018-02-16T05:25:47.037Z,101582.05
2018-02-16T05:28:22.157Z,101576.73
2018-02-16T05:30:56.735Z,101585.07
2018-02-16T05:33:31.675Z,101573.55
2018-02-16T05:36:07.243Z,101571.45
2018-02-16T05:38:42.872Z,101588.48
2018-02-16T05:41:17.915Z,101587.27
2018-02-16T05:43:52.867Z,101585.14
2018-02-16T05:46:27.463Z,101590.75
2018-02-16T05:49:03.582Z,101595.54
2018-02-16T05:51:38.706Z,101609.41
2018-02-16T05:54:13.719Z,101619.18
2018-02-16T05:56:48.394Z,101618.52
2018-02-16T05:59:23.283Z,101632.28
2018-02-16T06:01:58.227Z,101634.05
2018-02-16T06:04:33.120Z,101642.52
2018-02-16T06:07:08.075Z,101651.38
2018-02-16T06:09:42.956Z,101648.94
2018-02-16T06:12:18.007Z,101659.20
2018-02-16T06:14:52.842Z,101651.73
2018-02-16T06:17:27.847Z,101657.94
2018-02-16T06:20:03.432Z,101664.11
2018-02-16T06:22:38.812Z,101670.41
2018-02-16T06:25:13.916Z,101669.25
2018-02-16T06:27:48.327Z,101673.05
2018-02-16T06:30:23.151Z,101677.53
2018-02-16T06:32:58.181Z,101682.55
2018-02-16T06:35:33.130Z,101681.33
2018-02-16T06:38:08.310Z,101688.70
2018-02-16T06:40:43.339Z,101684.82
2018-02-16T06:43:18.956Z,101687.77
2018-02-16T06:45:53.411Z,101694.43
2018-02-16T06:48:28.019Z,101696.12
2018-02-16T06:51:02.735Z,101692.06
2018-02-16T06:53:37.971Z,101706.21
2018-02-16T06:56:13.122Z,101713.79
2018-02-16T06:58:47.775Z,101716.39
2018-02-16T07:01:23.029Z,101714.55
2018-02-16T07:03:57.491Z,101706.18
2018-02-16T07:06:33.587Z,101706.99
2018-02-16T07:09:08.539Z,101717.09
2018-02-16T07:11:43.311Z,101718.30
2018-02-16T07:14:18.255Z,101723.95
2018-02-16T07:16:53.402Z,101723.45
2018-02-16T07:19:28.270Z,101732.13
2018-02-16T07:22:03.227Z,101732.95
2018-02-16T07:24:38.110Z,101739.39
2018-02-16T07:27:13.339Z,101735.22
2018-02-16T07:29:48.195Z,101741.39
2018-02-16T07:32:23.218Z,101744.52
2018-02-16T07:34:58.087Z,101750.31
2018-02-16T07:37:32.871Z,101750.80
2018-02-16T07:40:07.647Z,101746.24
2018-02-16T07:42:42.890Z,101757.27
2018-02-16T07:45:17.431Z,101759.95
2018-02-16T07:47:52.058Z,101764.53
2018-02-16T07:50:27.252Z,101773.70
2018-02-16T07:53:02.098Z,101769.11
2018-02-16T07:55:37.175Z,101775.84
2018-02-16T07:58:12.373Z,101778.23
2018-02-16T08:00:47.015Z,101779.52
2018-02-16T08:03:22.422Z,101784.45
2018-02-16T08:05:57.174Z,101785.78
2018-02-16T08:08:32.015Z,101789.98
2018-02-16T08:11:07.202Z,101795.87
2018-02-16T08:13:42.195Z,101805.76
2018-02-16T08:16:17.335Z,101804.39
2018-02-16T08:18:52.190Z,101810.88
2018-02-16T08:21:27.260Z,101823.30
2018-02-16T08:24:02.311Z,101815.54
2018-02-16T08:26:37.563Z,101814.67
2018-02-16T08:29:12.804Z,101813.99
2018-02-16T08:31:47.445Z,101823.51
2018-02-16T08:34:22.695Z,101829.60
2018-02-16T08:36:58.251Z,101829.13
2018-02-16T08:39:33.150Z,101824.09
2018-02-16T08:42:08.229Z,101832.59
2018-02-16T08:44:43.494Z,101840.97
2018-02-16T08:47:18.311Z,101841.52
2018-02-16T08:49:53.171Z,101848.74
2018-02-16T08:52:28.542Z,101854.18
2018-02-16T08:55:03.477Z,101848.42
2018-02-16T08:57:38.339Z,101849.20
2018-02-16T09:00:13.343Z,101855.87
2018-02-16T09:02:48.510Z,101858.14
2018-02-16T09:05:23.299Z,101859.69
2018-02-16T09:07:58.547Z,101866.90
2018-02-16T09:10:33.671Z,101869.62
2018-02-16T09:13:08.603Z,101869.80
2018-02-16T09:15:43.655Z,101879.16
2018-02-16T09:18:18.711Z,101878.59
2018-02-16T09:20:53.639Z,101872.75
2018-02-16T09:23:29.195Z,101880.83
2018-02-16T09:26:04.223Z,101884.22
2018-02-16T09:28:39.011Z,101886.17
2018-02-16T09:31:14.235Z,101886.23
2018-02-16T09:33:49.317Z,101891.39
2018-02-16T09:36:24.305Z,101892.34
2018-02-16T09:39:00.067Z,101898.19
2018-02-16T09:41:35.248Z,101894.89
2018-02-16T09:44:11.571Z,101898.50
2018-02-16T09:46:46.021Z,101904.97
2018-02-16T09:49:21.478Z,101901.03
2018-02-16T09:51:56.491Z,101906.05
2018-02-16T09:54:31.440Z,101913.98
2018-02-16T09:57:06.343Z,101909.48
2018-02-16T09:59:41.388Z,101929.38
2018-02-16T10:02:16.639Z,101927.77
2018-02-16T10:04:51.619Z,101929.29
2018-02-16T10:07:27.344Z,101936.41
2018-02-16T10:10:01.579Z,101927.09
2018-02-16T10:12:36.414Z,101938.06
2018-02-16T10:15:11.763Z,101945.89
2018-02-16T10:17:46.391Z,101948.08
2018-02-16T10:20:21.376Z,101947.59
2018-02-16T10:22:56.419Z,101953.13
2018-02-16T10:25:31.311Z,101942.24
2018-02-16T10:28:06.440Z,101960.20
2018-02-16T10:30:41.258Z,101964.44
2018-02-16T10:33:15.948Z,101959.55
2018-02-16T10:35:51.282Z,101964.97
2018-02-16T10:38:25.986Z,101965.49
2018-02-16T10:41:01.307Z,101964.49
2018-02-16T10:43:35.739Z,101967.44
2018-02-16T10:46:11.686Z,101961.81
2018-02-16T10:48:46.535Z,101975.50
2018-02-16T10:51:21.498Z,101970.98
2018-02-16T10:53:56.595Z,101978.11
2018-02-16T10:56:31.551Z,101979.25
2018-02-16T10:59:06.604Z,101981.95
2018-02-16T11:01:44.991Z,101981.83
2018-02-16T11:07:24.468Z,101999.54
2018-02-16T11:09:59.447Z,101997.16
2018-02-16T11:12:34.438Z,101995.41
2018-02-16T11:15:09.591Z,101993.56
2018-02-16T11:17:44.743Z,101998.72
2018-02-16T11:20:19.778Z,101996.41
2018-02-16T11:22:54.776Z,101999.89
2018-02-16T11:25:29.847Z,102004.27
2018-02-16T11:28:04.794Z,102006.55
2018-02-16T11:30:39.890Z,101993.02
2018-02-16T11:33:14.962Z,101998.45
2018-02-16T11:35:49.533Z,102001.55
2018-02-16T11:38:24.679Z,101998.97
2018-02-16T11:40:59.486Z,102010.27
2018-02-16T11:43:34.553Z,102010.30
2018-02-16T11:46:09.023Z,102018.28
2018-02-16T11:48:43.983Z,102022.66
2018-02-16T11:51:18.843Z,102021.84
2018-02-16T11:53:53.983Z,102029.87
2018-02-16T11:56:29.218Z,102030.30
2018-02-16T11:59:03.355Z,102031.52
2018-02-16T12:01:38.694Z,102028.12
2018-02-16T12:04:13.598Z,102020.48
2018-02-16T12:06:48.532Z,102034.95
2018-02-16T12:09:23.811Z,102029.91
2018-02-16T12:11:58.600Z,102030.56
2018-02-16T12:14:33.663Z,102032.48
2018-02-16T12:17:08.735Z,102029.13
2018-02-16T12:19:43.598Z,102037.73
2018-02-16T12:22:17.852Z,102036.19
2018-02-16T12:24:52.485Z,102045.61
2018-02-16T12:27:27.148Z,102039.16
2018-02-16T12:30:01.602Z,102038.72
2018-02-16T12:32:36.655Z,102040.74
2018-02-16T12:35:11.944Z,102040.66
2018-02-16T12:37:46.623Z,102034.90
2018-02-16T12:40:21.232Z,102038.26
2018-02-16T12:42:56.092Z,102044.30
2018-02-16T12:45:31.583Z,102037.36
2018-02-16T12:48:06.258Z,102044.16
2018-02-16T12:50:41.595Z,102043.53
2018-02-16T12:53:16.711Z,102049.63
2018-02-16T12:55:51.593Z,102040.89
2018-02-16T12:58:26.209Z,102042.53
2018-02-16T13:01:01.620Z,102038.73
2018-02-16T13:03:36.731Z,102045.32
2018-02-16T13:06:12.142Z,102046.36
2018-02-16T13:08:47.791Z,102044.91
2018-02-16T13:11:22.207Z,102041.61
2018-02-16T13:13:57.071Z,102044.16
2018-02-16T13:16:32.078Z,102043.98
2018-02-16T13:19:07.107Z,102038.25
2018-02-16T13:21:42.919Z,102046.30
2018-02-16T13:24:18.043Z,102036.98
2018-02-16T13:26:52.828Z,102040.09
2018-02-16T13:29:28.021Z,102035.72
2018-02-16T13:32:02.911Z,102033.95
2018-02-16T13:34:37.803Z,102033.70
2018-02-16T13:37:12.742Z,102038.64
2018-02-16T13:39:47.184Z,102042.66
2018-02-16T13:42:22.175Z,102037.45
2018-02-16T13:44:57.211Z,102040.20
2018-02-16T13:47:32.262Z,102043.69
2018-02-16T13:50:07.435Z,102038.78
2018-02-16T13:52:42.352Z,102045.28
2018-02-16T13:55:17.413Z,102049.27
2018-02-16T13:57:52.223Z,102057.21
2018-02-16T14:00:27.123Z,102061.24
2018-02-16T14:03:01.998Z,102061.91
2018-02-16T14:05:36.927Z,102058.62
2018-02-16T14:08:12.186Z,102059.83
2018-02-16T14:10:46.834Z,102070.35
2018-02-16T14:13:22.105Z,102067.08
2018-02-16T14:15:57.006Z,102061.78
2018-02-16T14:18:32.017Z,102061.48
2018-02-16T14:21:07.154Z,102068.09
2018-02-16T14:23:42.098Z,102071.33
2018-02-16T14:26:17.159Z,102063.64
2018-02-16T14:28:52.068Z,102074.80
2018-02-16T14:31:27.115Z,102075.99
2018-02-16T14:34:01.975Z,102071.67
2018-02-16T14:36:36.534Z,102075.56
2018-02-16T14:39:12.192Z,102075.51
2018-02-16T14:41:47.157Z,102070.86
2018-02-16T14:44:22.319Z,102071.00
2018-02-16T14:46:57.295Z,102076.16
2018-02-16T14:49:31.931Z,102074.78
2018-02-16T14:52:07.015Z,102077.14
2018-02-16T14:54:41.944Z,102076.45
2018-02-16T14:57:16.903Z,102078.36
2018-02-16T14:59:51.900Z,102071.20
2018-02-16T15:02:26.567Z,102077.95
2018-02-16T15:05:01.596Z,102080.30
2018-02-16T15:07:36.399Z,102077.14
2018-02-16T15:10:12.267Z,102080.19
2018-02-16T15:12:47.262Z,102079.20
2018-02-16T15:15:22.235Z,102079.09
2018-02-16T15:17:57.962Z,102072.88
2018-02-16T15:20:32.694Z,102083.64
2018-02-16T15:23:07.999Z,102074.45
2018-02-16T15:25:43.055Z,102076.59
2018-02-16T15:28:18.239Z,102071.29
2018-02-16T15:30:52.843Z,102076.03
2018-02-16T15:33:28.218Z,102082.64
2018-02-16T15:36:03.116Z,102077.91
2018-02-16T15:38:38.116Z,102077.79
2018-02-16T15:41:13.147Z,102083.49
2018-02-16T15:43:48.014Z,102088.99
2018-02-16T15:46:23.251Z,102087.45
2018-02-16T15:48:58.451Z,102087.80
2018-02-16T15:51:33.184Z,102084.34
2018-02-16T15:54:08.166Z,102082.55
2018-02-16T15:56:42.995Z,102085.73
2018-02-16T15:59:17.639Z,102086.12
2018-02-16T16:01:52.596Z,102090.21
2018-02-16T16:04:27.514Z,102097.04
2018-02-16T16:07:02.598Z,102091.89
2018-02-16T16:09:37.511Z,102097.01
2018-02-16T16:12:12.482Z,102097.70
2018-02-16T16:14:47.375Z,102097.45
2018-02-16T16:17:22.866Z,102100.66
2018-02-16T16:19:58.211Z,102094.37
2018-02-16T16:22:33.214Z,102100.34
2018-02-16T16:25:08.207Z,102104.03
2018-02-16T16:27:43.019Z,102109.39
2018-02-16T16:30:18.319Z,102109.95
2018-02-16T16:32:53.259Z,102112.95
2018-02-16T16:35:28.418Z,102115.94
2018-02-16T16:38:03.263Z,102116.81
2018-02-16T16:40:38.263Z,102125.72
2018-02-16T16:43:13.559Z,102131.11
2018-02-16T16:45:48.358Z,102130.33
2018-02-16T16:48:23.423Z,102131.93
2018-02-16T16:50:58.330Z,102140.56
2018-02-16T16:53:33.378Z,102137.29
2018-02-16T16:56:09.347Z,102139.37
2018-02-16T16:58:44.247Z,102138.52
2018-02-16T17:01:18.315Z,102145.84
2018-02-16T17:03:52.496Z,102151.86
2018-02-16T17:06:27.461Z,102158.69
2018-02-16T17:09:02.589Z,102155.50
2018-02-16T17:11:37.375Z,102164.53
2018-02-16T17:14:12.667Z,102164.78
2018-02-16T17:16:47.527Z,102165.33
2018-02-16T17:19:22.099Z,102166.33
2018-02-16T17:21:57.454Z,102167.26
2018-02-16T17:24:32.026Z,102172.23
2018-02-16T17:27:07.286Z,102170.55
2018-02-16T17:29:42.359Z,102179.06
2018-02-16T17:32:16.895Z,102175.23
2018-02-16T17:34:52.286Z,102175.05
2018-02-16T17:37:27.216Z,102183.30
2018-02-16T17:40:02.278Z,102182.09
2018-02-16T17:42:37.287Z,102183.16
2018-02-16T17:45:12.180Z,102190.83
2018-02-16T17:47:46.899Z,102196.25
2018-02-16T17:50:21.786Z,102191.86
2018-02-16T17:52:56.744Z,102200.08
2018-02-16T17:55:32.004Z,102198.56
2018-02-16T17:58:07.016Z,102194.98
2018-02-16T18:00:41.672Z,102193.46
2018-02-16T18:03:16.782Z,102208.58
2018-02-16T18:05:51.727Z,102206.73
2018-02-16T18:08:26.563Z,102209.78
2018-02-16T18:11:01.170Z,102213.41
2018-02-16T18:13:36.312Z,102208.13
2018-02-16T18:16:11.722Z,102205.48
2018-02-16T18:18:46.803Z,102209.02
2018-02-16T18:21:22.614Z,102202.44
2018-02-16T18:23:57.839Z,102207.05
2018-02-16T18:26:32.951Z,102203.20
2018-02-16T18:29:07.971Z,102194.48
2018-02-16T18:31:42.799Z,102189.71
2018-02-16T18:34:17.419Z,102199.64
2018-02-16T18:36:52.762Z,102193.55
2018-02-16T18:39:28.001Z,102195.11
2018-02-16T18:42:02.787Z,102192.72
2018-02-16T18:44:37.423Z,102193.02
2018-02-16T18:47:12.127Z,102195.17
2018-02-16T18:49:47.514Z,102196.53
2018-02-16T18:52:22.235Z,102196.67
2018-02-16T18:54:57.399Z,102196.38
2018-02-16T18:57:32.143Z,102199.47
2018-02-16T19:00:06.706Z,102196.49
2018-02-16T19:02:42.743Z,102201.30
2018-02-16T19:05:17.975Z,102206.94
2018-02-16T19:07:52.919Z,102204.08
2018-02-16T19:10:27.379Z,102201.74
2018-02-16T19:13:02.602Z,102204.39
2018-02-16T19:15:37.182Z,102203.47
2018-02-16T19:18:12.038Z,102211.45
2018-02-16T19:20:46.979Z,102203.83
2018-02-16T19:23:22.031Z,102208.81
2018-02-16T19:25:56.878Z,102212.98
2018-02-16T19:28:31.622Z,102213.11
2018-02-16T19:31:06.710Z,102215.50
2018-02-16T19:33:41.731Z,102210.23
2018-02-16T19:36:17.800Z,102214.24
2018-02-16T19:38:54.067Z,102217.77
2018-02-16T19:41:29.610Z,102214.66
2018-02-16T19:44:04.104Z,102215.57
2018-02-16T19:46:39.480Z,102214.24
2018-02-16T19:49:14.795Z,102214.73
2018-02-16T19:51:50.354Z,102209.98
2018-02-16T19:54:24.893Z,102205.67
2018-02-16T19:57:00.303Z,102212.86
2018-02-16T19:59:35.992Z,102208.08
2018-02-16T20:02:10.998Z,102204.62
2018-02-16T20:04:46.466Z,102205.20
2018-02-16T20:07:21.438Z,102197.47
2018-02-16T20:09:56.488Z,102196.05
2018-02-16T20:12:31.594Z,102201.48
2018-02-16T20:15:07.018Z,102201.89
2018-02-16T20:17:42.157Z,102208.52
2018-02-16T20:20:16.995Z,102208.44
2018-02-16T20:22:51.255Z,102209.20
2018-02-16T20:25:26.616Z,102204.28
2018-02-16T20:28:01.307Z,102216.36
2018-02-16T20:30:36.325Z,102214.67
2018-02-16T20:33:11.179Z,102218.80
2018-02-16T20:35:46.518Z,102214.88
2018-02-16T20:38:21.530Z,102219.34
2018-02-16T20:40:56.176Z,102218.93
2018-02-16T20:43:31.167Z,102212.66
2018-02-16T20:46:06.485Z,102223.11
2018-02-16T20:48:41.419Z,102215.02
2018-02-16T20:51:16.310Z,102205.91
2018-02-16T20:53:51.510Z,102209.24
2018-02-16T20:56:26.531Z,102210.97
2018-02-16T20:59:01.587Z,102206.83
2018-02-16T21:01:36.447Z,102213.41
2018-02-16T21:04:11.668Z,102215.52
2018-02-16T21:06:46.494Z,102214.05
2018-02-16T21:09:21.822Z,102208.20
2018-02-16T21:11:56.871Z,102211.16
2018-02-16T21:14:31.843Z,102211.35
2018-02-16T21:17:07.291Z,102215.78
2018-02-16T21:19:42.911Z,102219.42
2018-02-16T21:22:18.243Z,102228.20
2018-02-16T21:24:53.172Z,102229.92
2018-02-16T21:27:28.095Z,102233.02
2018-02-16T21:30:02.658Z,102243.02
2018-02-16T21:32:37.720Z,102237.23
2018-02-16T21:35:12.509Z,102237.63
2018-02-16T21:37:47.415Z,102240.93
2018-02-16T21:40:22.218Z,102246.28
2018-02-16T21:42:57.299Z,102246.24
2018-02-16T21:45:32.419Z,102242.49
2018-02-16T21:48:07.403Z,102244.36
2018-02-16T21:50:41.786Z,102242.50
2018-02-16T21:53:17.240Z,102241.41
2018-02-16T21:55:52.531Z,102242.12
2018-02-16T21:58:27.791Z,102234.44
2018-02-16T22:01:03.176Z,102242.16
2018-02-16T22:03:37.847Z,102242.34
2018-02-16T22:06:12.792Z,102246.92
2018-02-16T22:08:47.869Z,102236.83
2018-02-16T22:11:22.473Z,102232.50
2018-02-16T22:13:57.768Z,102228.09
2018-02-16T22:16:32.438Z,102223.77
2018-02-16T22:19:07.650Z,102221.23
2018-02-16T22:21:42.387Z,102226.70
2018-02-16T22:24:17.438Z,102222.78
2018-02-16T22:26:52.074Z,102223.36
2018-02-16T22:29:26.823Z,102214.50
2018-02-16T22:32:01.683Z,102213.62
2018-02-16T22:34:36.367Z,102218.98
2018-02-16T22:37:11.331Z,102211.19
2018-02-16T22:39:46.726Z,102217.17
2018-02-16T22:42:21.475Z,102225.38
2018-02-16T22:44:56.724Z,102227.76
2018-02-16T22:47:31.823Z,102223.45
2018-02-16T22:50:06.975Z,102221.92
2018-02-16T22:52:42.013Z,102222.34
2018-02-16T22:55:16.464Z,102232.15
2018-02-16T22:57:51.229Z,102230.85
2018-02-16T23:00:25.917Z,102233.16
2018-02-16T23:03:01.423Z,102226.97
2018-02-16T23:05:36.547Z,102231.00
2018-02-16T23:08:11.590Z,102228.40
2018-02-16T23:10:46.947Z,102228.03
2018-02-16T23:13:21.730Z,102230.78
2018-02-16T23:15:56.815Z,102235.30
2018-02-16T23:18:31.834Z,102235.45
2018-02-16T23:21:06.907Z,102234.73
2018-02-16T23:23:41.418Z,102241.52
2018-02-16T23:26:16.746Z,102244.73
2018-02-16T23:28:51.703Z,102243.94
2018-02-16T23:31:27.004Z,102248.85
2018-02-16T23:34:02.623Z,102249.86
2018-02-16T23:36:38.287Z,102251.36
2018-02-16T23:39:13.591Z,102248.83
2018-02-16T23:41:48.887Z,102254.80
2018-02-16T23:44:23.893Z,102246.98
2018-02-16T23:46:59.530Z,102249.25
2018-02-16T23:49:34.532Z,102251.53
2018-02-16T23:52:09.567Z,102242.73
2018-02-16T23:54:44.832Z,102240.95
2018-02-16T23:57:18.988Z,102227.22
2018-02-16T23:59:53.426Z,102223.33
